Roberts International Airport

Jump to: basic info | weather | frequencies | runways | comments

Related pages: nearby airports | nearby navaids | notams | map

Basic information (top)

Codes: ROB GLRB
Location: lon 6.233790, lat -10.362300, elev 31 ft / 9 m msl
Status: medium_airport
Scheduled airline service: yes
Links: Wikipedia Mobile

Weather (top)

Current conditions (rec'd 2014/04/20 02:30Z):

GLRB 200230Z 00000KT 9999 SCT013 24/23 Q1011 NOSIG

Airport forecast (rec'd 2014/04/19 18:51Z):

TAF TAF GLRB 191600Z 1918/2024 24008KT 9999 BKN016 FEW025CB 
      BECMG 1920/1922 00000KT 9999 
      TEMPO 1923/2003 VRB03KT 9000 SCT013 
      BECMG 2004/2006 07009KT 7000 RA/TSRA

Frequencies (top)

Verify before use: may be inaccurate or out of date.

A/G: 345.2 MHz (A/G VOICE RDO)
APP: 124.5 MHz (ROBERTS APP)
GND: 121.9 MHz (GND)
TWR: 118.3 MHz (ROBERTS TWR)

Runways (top)

04/22: 11,000 x 150 ft (3,353 x 46 m) — paved — lighted — threshold 22 displaced 1,200 ft (366 m)

Latest comments (top)

No comments yet for Roberts International Airport

More... (top)

See also NOTAMs and nearby airports and navaids, or visit the Roberts International Airport page at the main OurAirports website..